createdAt,value
2023-06-29T00:00:30.162Z,6.90
2023-06-29T00:01:30.187Z,8.10
2023-06-29T00:02:30.145Z,10.00
2023-06-29T00:03:30.100Z,11.80
2023-06-29T00:04:30.051Z,7.80
2023-06-29T00:05:30.025Z,8.70
2023-06-29T00:06:30.024Z,7.60
2023-06-29T00:07:30.098Z,8.00
2023-06-29T00:08:30.019Z,9.80
2023-06-29T00:09:30.014Z,12.10
2023-06-29T00:10:29.998Z,9.00
2023-06-29T00:11:29.968Z,8.90
2023-06-29T00:12:29.946Z,6.70
2023-06-29T00:13:29.921Z,9.20
2023-06-29T00:14:29.900Z,8.60
2023-06-29T00:15:29.893Z,8.10
2023-06-29T00:16:29.921Z,9.60
2023-06-29T00:17:29.911Z,8.10
2023-06-29T00:18:29.861Z,10.80
2023-06-29T00:19:29.868Z,11.60
2023-06-29T00:20:29.882Z,9.80
2023-06-29T00:21:29.924Z,9.60
2023-06-29T00:22:29.819Z,10.40
2023-06-29T00:23:29.782Z,7.40
2023-06-29T00:24:29.772Z,8.40
2023-06-29T00:25:29.875Z,8.40
2023-06-29T00:26:29.766Z,8.00
2023-06-29T00:27:29.751Z,8.50
2023-06-29T00:28:29.715Z,8.80
2023-06-29T00:29:29.708Z,10.20
2023-06-29T00:30:29.701Z,7.40
2023-06-29T00:31:29.756Z,10.60
2023-06-29T00:32:29.722Z,10.20
2023-06-29T00:33:29.660Z,9.30
2023-06-29T00:34:29.663Z,10.60
2023-06-29T00:35:29.632Z,6.40
2023-06-29T00:36:29.621Z,9.20
2023-06-29T00:37:29.621Z,9.90
2023-06-29T00:38:29.589Z,11.00
2023-06-29T00:39:29.579Z,8.70
2023-06-29T00:40:29.612Z,10.90
2023-06-29T00:41:29.591Z,8.00
2023-06-29T00:42:29.557Z,10.80
2023-06-29T00:43:29.563Z,11.90
2023-06-29T00:44:29.524Z,10.80
2023-06-29T00:45:29.502Z,10.90
2023-06-29T00:46:29.502Z,9.80
2023-06-29T00:47:29.518Z,11.70
2023-06-29T00:48:29.485Z,10.40
2023-06-29T00:49:29.460Z,10.20
2023-06-29T00:50:29.438Z,10.60
2023-06-29T00:51:29.432Z,9.10
2023-06-29T00:52:29.408Z,10.30
2023-06-29T00:53:29.409Z,8.50
2023-06-29T00:54:29.397Z,8.70
2023-06-29T00:55:29.378Z,10.90
2023-06-29T00:56:29.388Z,7.70
2023-06-29T00:57:29.343Z,8.20
2023-06-29T00:58:29.344Z,9.10
2023-06-29T00:59:29.329Z,9.10
2023-06-29T01:00:29.401Z,11.30
2023-06-29T01:01:29.581Z,10.40
2023-06-29T01:02:29.324Z,9.60
2023-06-29T01:03:29.440Z,9.80
2023-06-29T01:04:29.250Z,10.80
2023-06-29T01:05:29.304Z,15.50
2023-06-29T01:06:29.252Z,9.80
2023-06-29T01:07:29.373Z,9.30
2023-06-29T01:08:29.208Z,10.50
2023-06-29T01:09:29.194Z,10.30
2023-06-29T01:10:29.187Z,10.50
2023-06-29T01:11:29.193Z,10.10
2023-06-29T01:12:29.166Z,10.40
2023-06-29T01:13:29.145Z,9.00
2023-06-29T01:14:29.180Z,9.40
2023-06-29T01:15:29.139Z,10.50
2023-06-29T01:16:29.206Z,11.30
2023-06-29T01:17:29.124Z,8.70
2023-06-29T01:18:29.080Z,9.50
2023-06-29T01:19:29.067Z,10.40
2023-06-29T01:20:29.083Z,10.30
2023-06-29T01:21:29.052Z,11.40
2023-06-29T01:22:29.098Z,8.20
2023-06-29T01:23:29.010Z,8.60
2023-06-29T01:24:29.022Z,8.10
2023-06-29T01:25:29.002Z,6.70
2023-06-29T01:26:29.061Z,12.40
2023-06-29T01:27:28.957Z,14.40
2023-06-29T01:28:28.952Z,10.40
2023-06-29T01:29:28.937Z,12.50
2023-06-29T01:30:28.939Z,7.90
2023-06-29T01:31:29.257Z,8.70
2023-06-29T01:32:28.920Z,11.60
2023-06-29T01:33:28.882Z,11.70
2023-06-29T01:34:28.881Z,10.40
2023-06-29T01:35:28.878Z,11.10
2023-06-29T01:36:28.858Z,11.10
2023-06-29T01:37:28.873Z,16.70
2023-06-29T01:38:28.822Z,10.30
2023-06-29T01:39:28.801Z,14.60
2023-06-29T01:40:28.800Z,12.30
2023-06-29T01:41:28.796Z,8.20
2023-06-29T01:42:28.771Z,11.50
2023-06-29T01:43:28.787Z,8.50
2023-06-29T01:44:28.743Z,11.60
2023-06-29T01:45:28.736Z,11.20
2023-06-29T01:46:28.767Z,10.70
2023-06-29T01:47:28.744Z,10.70
2023-06-29T01:48:28.711Z,11.40
2023-06-29T01:49:28.678Z,11.30
2023-06-29T01:50:28.667Z,14.70
2023-06-29T01:51:28.681Z,9.00
2023-06-29T01:52:28.641Z,14.30
2023-06-29T01:53:31.191Z,10.90
2023-06-29T01:54:28.604Z,13.90
2023-06-29T01:55:28.596Z,9.00
2023-06-29T01:56:28.615Z,10.50
2023-06-29T01:57:28.580Z,12.00
2023-06-29T01:58:28.551Z,11.20
2023-06-29T01:59:28.564Z,13.00
2023-06-29T02:00:28.530Z,14.60
2023-06-29T02:01:28.568Z,9.60
2023-06-29T02:02:28.574Z,12.40
2023-06-29T02:03:28.589Z,10.90
2023-06-29T02:04:28.524Z,11.90
2023-06-29T02:05:28.475Z,14.00
2023-06-29T02:06:28.450Z,11.30
2023-06-29T02:07:28.477Z,8.60
2023-06-29T02:08:28.441Z,12.20
2023-06-29T02:09:28.433Z,9.10
2023-06-29T02:10:28.400Z,10.20
2023-06-29T02:11:28.582Z,12.00
2023-06-29T02:12:28.383Z,9.10
2023-06-29T02:13:28.368Z,9.90
2023-06-29T02:14:28.356Z,12.70
2023-06-29T02:15:28.343Z,12.80
2023-06-29T02:16:28.356Z,7.30
2023-06-29T02:17:28.369Z,11.20
2023-06-29T02:18:28.307Z,11.60
2023-06-29T02:19:28.279Z,12.60
2023-06-29T02:20:28.271Z,11.90
2023-06-29T02:21:28.286Z,8.60
2023-06-29T02:22:28.261Z,12.80
2023-06-29T02:23:28.243Z,13.40
2023-06-29T02:24:28.224Z,10.90
2023-06-29T02:25:28.223Z,10.10
2023-06-29T02:26:28.212Z,10.20
2023-06-29T02:27:28.196Z,11.20
2023-06-29T02:28:28.187Z,11.00
2023-06-29T02:29:28.149Z,10.00
2023-06-29T02:30:28.160Z,11.10
2023-06-29T02:31:28.157Z,10.10
2023-06-29T02:32:28.169Z,12.40
2023-06-29T02:33:28.100Z,9.80
2023-06-29T02:34:28.109Z,11.10
2023-06-29T02:35:28.128Z,11.70
2023-06-29T02:36:28.091Z,12.90
2023-06-29T02:37:28.053Z,10.10
2023-06-29T02:38:28.055Z,9.80
2023-06-29T02:39:28.050Z,16.20
2023-06-29T02:40:28.014Z,12.60
2023-06-29T02:41:28.018Z,10.00
2023-06-29T02:42:27.990Z,10.70
2023-06-29T02:43:27.975Z,11.30
2023-06-29T02:44:27.966Z,14.30
2023-06-29T02:45:27.954Z,10.50
2023-06-29T02:46:28.022Z,10.70
2023-06-29T02:47:27.978Z,13.60
2023-06-29T02:48:27.915Z,10.50
2023-06-29T02:49:27.908Z,12.20
2023-06-29T02:50:27.901Z,11.60
2023-06-29T02:51:27.884Z,10.80
2023-06-29T02:52:27.863Z,10.00
2023-06-29T02:53:27.848Z,13.20
2023-06-29T02:54:27.836Z,16.50
2023-06-29T02:55:27.829Z,14.40
2023-06-29T02:56:27.828Z,12.60
2023-06-29T02:57:27.797Z,12.50
2023-06-29T02:58:27.792Z,12.90
2023-06-29T02:59:27.768Z,11.80
2023-06-29T03:00:27.759Z,9.80
2023-06-29T03:01:27.810Z,12.40
2023-06-29T03:02:27.801Z,9.40
2023-06-29T03:03:27.819Z,10.60
2023-06-29T03:04:27.696Z,16.00
2023-06-29T03:05:27.702Z,12.40
2023-06-29T03:06:27.697Z,9.60
2023-06-29T03:07:27.710Z,9.60
2023-06-29T03:08:27.657Z,9.90
2023-06-29T03:09:27.636Z,10.30
2023-06-29T03:10:27.643Z,12.00
2023-06-29T03:11:27.631Z,9.70
2023-06-29T03:12:27.605Z,10.80
2023-06-29T03:13:27.597Z,10.20
2023-06-29T03:14:27.595Z,13.00
2023-06-29T03:15:27.568Z,10.90
2023-06-29T03:16:27.618Z,10.10
2023-06-29T03:17:27.610Z,11.40
2023-06-29T03:18:27.527Z,9.90
2023-06-29T03:19:27.521Z,11.20
2023-06-29T03:20:27.507Z,8.40
2023-06-29T03:21:27.508Z,11.80
2023-06-29T03:22:27.475Z,10.80
2023-06-29T03:23:27.464Z,10.00
2023-06-29T03:24:27.453Z,10.40
2023-06-29T03:25:27.442Z,12.20
2023-06-29T03:26:27.448Z,11.30
2023-06-29T03:27:27.430Z,9.00
2023-06-29T03:28:27.408Z,11.00
2023-06-29T03:29:27.381Z,9.50
2023-06-29T03:30:27.417Z,9.90
2023-06-29T03:31:27.440Z,11.30
2023-06-29T03:32:27.412Z,10.10
2023-06-29T03:33:27.340Z,9.20
2023-06-29T03:34:27.319Z,9.50
2023-06-29T03:35:27.306Z,14.70
2023-06-29T03:36:27.349Z,11.40
2023-06-29T03:37:27.301Z,9.00
2023-06-29T03:38:27.278Z,10.50
2023-06-29T03:39:27.259Z,13.70
2023-06-29T03:40:27.264Z,10.70
2023-06-29T03:41:27.247Z,9.30
2023-06-29T03:42:27.251Z,9.00
2023-06-29T03:43:27.228Z,9.10
2023-06-29T03:44:27.199Z,8.90
2023-06-29T03:45:27.191Z,11.50
2023-06-29T03:46:27.174Z,9.90
2023-06-29T03:47:27.245Z,8.40
2023-06-29T03:48:27.206Z,8.60
2023-06-29T03:49:27.125Z,10.70
2023-06-29T03:50:28.073Z,8.50
2023-06-29T03:51:27.100Z,10.10
2023-06-29T03:52:27.107Z,10.20
2023-06-29T03:53:27.093Z,10.00
2023-06-29T03:54:27.057Z,12.80
2023-06-29T03:55:27.056Z,10.00
2023-06-29T03:56:27.038Z,8.90
2023-06-29T03:57:27.040Z,11.50
2023-06-29T03:58:27.016Z,10.00
2023-06-29T03:59:27.031Z,9.50
2023-06-29T04:00:26.988Z,7.40
2023-06-29T04:01:27.248Z,9.20
2023-06-29T04:02:27.067Z,7.60
2023-06-29T04:03:27.007Z,10.60
2023-06-29T04:04:26.928Z,8.90
2023-06-29T04:05:26.923Z,12.20
2023-06-29T04:06:26.946Z,10.20
2023-06-29T04:07:27.069Z,9.90
2023-06-29T04:08:26.886Z,9.50
2023-06-29T04:09:26.877Z,8.50
2023-06-29T04:10:26.857Z,13.50
2023-06-29T04:11:26.861Z,12.10
2023-06-29T04:12:26.853Z,11.20
2023-06-29T04:13:26.814Z,8.80
2023-06-29T04:14:26.816Z,11.30
2023-06-29T04:15:26.797Z,8.60
2023-06-29T04:16:26.856Z,11.50
2023-06-29T04:17:26.846Z,9.90
2023-06-29T04:18:26.773Z,12.10
2023-06-29T04:19:26.745Z,9.40
2023-06-29T04:20:26.725Z,10.20
2023-06-29T04:21:26.742Z,7.20
2023-06-29T04:22:26.732Z,10.00
2023-06-29T04:23:26.687Z,11.90
2023-06-29T04:24:26.677Z,8.90
2023-06-29T04:25:26.667Z,9.00
2023-06-29T04:26:26.664Z,9.10
2023-06-29T04:27:26.637Z,9.20
2023-06-29T04:28:26.632Z,13.40
2023-06-29T04:29:26.608Z,8.50
2023-06-29T04:30:26.622Z,14.10
2023-06-29T04:31:26.591Z,7.40
2023-06-29T04:32:26.605Z,10.60
2023-06-29T04:33:26.567Z,14.90
2023-06-29T04:34:26.548Z,10.50
2023-06-29T04:35:26.548Z,10.30
2023-06-29T04:36:26.540Z,8.30
2023-06-29T04:37:26.617Z,7.30
2023-06-29T04:38:26.493Z,12.50
2023-06-29T04:39:26.473Z,9.70
2023-06-29T04:40:26.470Z,12.00
2023-06-29T04:41:26.463Z,12.70
2023-06-29T04:42:26.448Z,10.70
2023-06-29T04:43:26.427Z,10.70
2023-06-29T04:44:26.424Z,10.50
2023-06-29T04:45:26.421Z,9.50
2023-06-29T04:46:26.511Z,11.80
2023-06-29T04:47:26.422Z,6.90
2023-06-29T04:48:26.357Z,11.20
2023-06-29T04:49:26.358Z,8.60
2023-06-29T04:50:26.735Z,8.80
2023-06-29T04:51:26.389Z,10.90
2023-06-29T04:52:26.330Z,10.00
2023-06-29T04:53:26.295Z,7.00
2023-06-29T04:54:26.288Z,13.30
2023-06-29T04:55:26.271Z,12.50
2023-06-29T04:56:26.289Z,9.50
2023-06-29T04:57:29.454Z,9.60
2023-06-29T04:58:26.244Z,10.30
2023-06-29T04:59:26.248Z,12.60
2023-06-29T05:00:26.205Z,7.30
2023-06-29T05:01:26.245Z,8.40
2023-06-29T05:02:26.301Z,8.50
2023-06-29T05:03:26.439Z,13.90
2023-06-29T05:04:26.159Z,11.10
2023-06-29T05:05:26.143Z,9.90
2023-06-29T05:06:26.143Z,9.40
2023-06-29T05:07:26.121Z,11.10
2023-06-29T05:08:26.106Z,9.60
2023-06-29T05:09:26.093Z,8.90
2023-06-29T05:10:26.112Z,9.90
2023-06-29T05:11:26.084Z,9.10
2023-06-29T05:12:26.068Z,8.50
2023-06-29T05:13:26.048Z,9.70
2023-06-29T05:14:26.041Z,10.90
2023-06-29T05:15:26.025Z,9.10
2023-06-29T05:16:26.026Z,7.90
2023-06-29T05:17:26.054Z,11.50
2023-06-29T05:18:25.980Z,11.80
2023-06-29T05:19:25.963Z,10.20
2023-06-29T05:20:25.984Z,10.00
2023-06-29T05:21:25.937Z,10.60
2023-06-29T05:22:25.946Z,9.40
2023-06-29T05:23:25.920Z,11.10
2023-06-29T05:24:25.916Z,10.40
2023-06-29T05:25:25.900Z,11.60
2023-06-29T05:26:25.894Z,11.80
2023-06-29T05:27:25.871Z,11.20
2023-06-29T05:28:25.851Z,13.00
2023-06-29T05:29:25.843Z,9.20
2023-06-29T05:30:25.822Z,11.40
2023-06-29T05:31:25.871Z,10.30
2023-06-29T05:32:25.870Z,10.70
2023-06-29T05:33:25.815Z,12.20
2023-06-29T05:34:25.781Z,9.10
2023-06-29T05:35:25.773Z,9.90
2023-06-29T05:36:25.810Z,10.70
2023-06-29T05:37:25.736Z,10.60
2023-06-29T05:38:25.719Z,8.10
2023-06-29T05:39:25.702Z,10.00
2023-06-29T05:40:25.696Z,8.90
2023-06-29T05:41:25.964Z,11.80
2023-06-29T05:42:25.676Z,14.80
2023-06-29T05:43:25.656Z,9.60
2023-06-29T05:44:25.651Z,9.90
2023-06-29T05:45:25.625Z,9.80
2023-06-29T05:46:25.755Z,8.80
2023-06-29T05:47:25.741Z,11.00
2023-06-29T05:48:25.609Z,9.30
2023-06-29T05:49:25.587Z,10.90
2023-06-29T05:50:25.578Z,10.90
2023-06-29T05:51:25.587Z,9.30
2023-06-29T05:52:25.560Z,11.50
2023-06-29T05:53:25.521Z,8.80
2023-06-29T05:54:25.518Z,9.60
2023-06-29T05:55:25.502Z,10.70
2023-06-29T05:56:25.512Z,15.10
2023-06-29T05:57:25.495Z,10.20
2023-06-29T05:58:25.458Z,13.30
2023-06-29T05:59:25.446Z,10.90
2023-06-29T06:00:25.437Z,19.50
2023-06-29T06:01:25.425Z,16.80
2023-06-29T06:02:25.651Z,15.10
2023-06-29T06:03:25.412Z,19.40
2023-06-29T06:04:25.382Z,13.70
2023-06-29T06:05:25.368Z,19.30
2023-06-29T06:06:25.358Z,19.10
2023-06-29T06:07:25.427Z,17.10
2023-06-29T06:08:25.351Z,18.60
2023-06-29T06:09:25.319Z,16.10
2023-06-29T06:10:25.305Z,12.70
2023-06-29T06:11:25.475Z,21.50
2023-06-29T06:12:25.311Z,16.30
2023-06-29T06:13:25.272Z,15.10
2023-06-29T06:14:25.259Z,18.70
2023-06-29T06:15:25.262Z,12.90
2023-06-29T06:16:25.280Z,8.80
2023-06-29T06:17:25.322Z,15.30
2023-06-29T06:18:25.199Z,8.10
2023-06-29T06:19:25.196Z,10.10
2023-06-29T06:20:25.178Z,9.50
2023-06-29T06:21:25.540Z,10.80
2023-06-29T06:22:25.198Z,8.90
2023-06-29T06:23:25.137Z,7.90
2023-06-29T06:24:25.130Z,12.50
2023-06-29T06:25:25.144Z,9.30
2023-06-29T06:26:25.120Z,9.50
2023-06-29T06:27:25.136Z,9.80
2023-06-29T06:28:25.072Z,9.80
2023-06-29T06:29:25.064Z,11.50
2023-06-29T06:30:25.042Z,9.70
2023-06-29T06:31:33.601Z,6.70
2023-06-29T06:32:26.074Z,9.70
2023-06-29T06:33:25.015Z,9.20
2023-06-29T06:34:25.014Z,14.10
2023-06-29T06:35:25.001Z,10.50
2023-06-29T06:36:24.980Z,14.30
2023-06-29T06:37:24.964Z,12.20
2023-06-29T06:38:34.424Z,11.00
2023-06-29T06:39:25.925Z,9.50
2023-06-29T06:40:24.930Z,9.20
2023-06-29T06:41:24.904Z,10.50
2023-06-29T06:42:24.999Z,10.60
2023-06-29T06:43:24.877Z,11.50
2023-06-29T06:44:24.867Z,11.00
2023-06-29T06:45:24.862Z,12.90
2023-06-29T06:46:24.885Z,8.30
2023-06-29T06:47:24.912Z,9.40
2023-06-29T06:48:24.809Z,10.60
2023-06-29T06:49:24.808Z,9.80
2023-06-29T06:50:24.789Z,9.70
2023-06-29T06:51:24.787Z,14.10
2023-06-29T06:52:24.756Z,10.30
2023-06-29T06:53:24.744Z,8.20
2023-06-29T06:54:24.731Z,11.50
2023-06-29T06:55:24.744Z,11.70
2023-06-29T06:56:24.733Z,10.70
2023-06-29T06:57:24.712Z,10.40
2023-06-29T06:58:24.689Z,10.10
2023-06-29T06:59:24.678Z,8.40
2023-06-29T07:00:24.657Z,9.50
2023-06-29T07:01:25.138Z,7.20
2023-06-29T07:02:24.781Z,8.80
2023-06-29T07:03:24.646Z,10.70
2023-06-29T07:04:24.597Z,8.80
2023-06-29T07:05:24.591Z,10.90
2023-06-29T07:06:24.604Z,7.90
2023-06-29T07:07:24.633Z,10.80
2023-06-29T07:08:24.555Z,7.60
2023-06-29T07:09:24.559Z,8.80
2023-06-29T07:10:24.534Z,11.40
2023-06-29T07:11:24.534Z,8.60
2023-06-29T07:12:24.511Z,9.90
2023-06-29T07:13:24.554Z,7.80
2023-06-29T07:14:24.481Z,8.20
2023-06-29T07:15:24.482Z,5.30
2023-06-29T07:16:24.465Z,7.00
2023-06-29T07:17:24.557Z,7.20
2023-06-29T07:18:24.449Z,7.60
2023-06-29T07:21:26.143Z,5.80
2023-06-29T07:24:24.355Z,10.90
2023-06-29T07:25:24.388Z,7.70
2023-06-29T07:26:24.321Z,6.60
2023-06-29T07:27:24.325Z,6.60
2023-06-29T07:28:24.302Z,7.20
2023-06-29T07:29:24.290Z,6.50
2023-06-29T07:30:24.302Z,8.60
2023-06-29T07:31:24.406Z,4.90
2023-06-29T07:32:24.287Z,8.00
2023-06-29T07:33:24.237Z,6.70
2023-06-29T07:34:24.363Z,10.00
2023-06-29T07:35:24.209Z,6.30
2023-06-29T07:36:24.196Z,8.20
2023-06-29T07:37:24.199Z,10.20
2023-06-29T07:38:24.164Z,11.20
2023-06-29T07:39:24.248Z,6.70
2023-06-29T07:40:24.228Z,7.30
2023-06-29T07:41:24.136Z,10.20
2023-06-29T07:42:38.172Z,7.60
2023-06-29T07:43:25.120Z,6.00
2023-06-29T07:44:24.092Z,6.30
2023-06-29T07:45:24.088Z,12.90
2023-06-29T07:46:24.083Z,12.10
2023-06-29T07:47:24.472Z,11.80
2023-06-29T07:48:24.264Z,5.30
2023-06-29T07:49:24.026Z,8.70
2023-06-29T07:50:24.049Z,10.10
2023-06-29T07:51:24.166Z,8.20
2023-06-29T07:52:24.016Z,6.60
2023-06-29T07:53:23.993Z,9.60
2023-06-29T07:54:23.973Z,12.70
2023-06-29T07:55:24.009Z,11.60
2023-06-29T07:56:23.975Z,15.50
2023-06-29T07:59:23.904Z,6.70
2023-06-29T08:00:23.948Z,7.60
2023-06-29T08:01:23.897Z,10.70
2023-06-29T08:02:23.940Z,7.30
2023-06-29T08:03:23.847Z,9.30
2023-06-29T08:07:23.929Z,4.40
2023-06-29T08:08:23.837Z,5.20
2023-06-29T08:09:23.787Z,9.40
2023-06-29T08:10:23.783Z,4.80
2023-06-29T08:11:23.754Z,5.60
2023-06-29T08:12:23.746Z,8.30
2023-06-29T08:13:23.714Z,6.50
2023-06-29T08:14:23.711Z,5.10
2023-06-29T08:15:23.695Z,7.80
2023-06-29T08:16:23.739Z,7.70
2023-06-29T08:17:23.728Z,4.90
2023-06-29T08:18:23.657Z,7.10
2023-06-29T08:19:23.673Z,8.40
2023-06-29T08:20:23.700Z,5.50
2023-06-29T08:21:23.619Z,8.30
2023-06-29T08:22:23.642Z,10.60
2023-06-29T08:23:23.606Z,7.10
2023-06-29T08:24:23.616Z,5.60
2023-06-29T08:25:23.572Z,10.30
2023-06-29T08:26:23.559Z,8.70
2023-06-29T08:27:23.561Z,9.30
2023-06-29T08:28:23.543Z,6.50
2023-06-29T08:29:23.525Z,9.80
2023-06-29T08:30:23.564Z,4.70
2023-06-29T08:31:23.543Z,6.90
2023-06-29T08:32:23.630Z,9.00
2023-06-29T08:33:23.729Z,8.20
2023-06-29T08:34:23.465Z,7.20
2023-06-29T08:35:23.439Z,5.70
2023-06-29T08:36:23.427Z,7.50
2023-06-29T08:37:23.421Z,7.30
2023-06-29T08:38:23.447Z,5.40
2023-06-29T08:39:23.394Z,8.80
2023-06-29T08:40:23.432Z,6.90
2023-06-29T08:41:23.369Z,7.10
2023-06-29T08:42:23.354Z,7.40
2023-06-29T08:43:23.495Z,7.10
2023-06-29T08:44:23.329Z,6.20
2023-06-29T08:45:23.302Z,7.10
2023-06-29T08:46:23.308Z,5.90
2023-06-29T08:47:23.393Z,7.40
2023-06-29T08:48:23.281Z,11.00
2023-06-29T08:49:23.309Z,8.00
2023-06-29T08:50:23.303Z,6.30
2023-06-29T08:51:23.264Z,5.90
2023-06-29T08:52:23.225Z,12.30
2023-06-29T08:53:23.293Z,11.60
2023-06-29T08:54:23.211Z,10.70
2023-06-29T08:55:23.180Z,6.30
2023-06-29T08:56:23.177Z,9.80
2023-06-29T08:57:23.152Z,9.30
2023-06-29T08:58:23.159Z,10.00
2023-06-29T08:59:23.133Z,10.20
2023-06-29T09:00:23.154Z,8.20
2023-06-29T09:01:23.134Z,7.70
2023-06-29T09:02:23.212Z,8.20
2023-06-29T09:03:23.150Z,8.20
2023-06-29T09:04:23.069Z,8.10
2023-06-29T09:05:23.061Z,5.30
2023-06-29T09:06:23.041Z,8.10
2023-06-29T09:07:23.067Z,9.30
2023-06-29T09:08:23.096Z,12.60
2023-06-29T09:09:22.993Z,12.30
2023-06-29T09:10:22.995Z,11.90
2023-06-29T09:11:22.996Z,8.60
2023-06-29T09:12:22.958Z,9.10
2023-06-29T09:13:22.948Z,11.70
2023-06-29T09:14:22.945Z,6.80
2023-06-29T09:15:22.924Z,8.80
2023-06-29T09:16:22.942Z,11.00
2023-06-29T09:17:23.091Z,10.50
2023-06-29T09:18:22.879Z,13.80
2023-06-29T09:19:22.876Z,9.80
2023-06-29T09:20:22.886Z,7.00
2023-06-29T09:21:22.845Z,6.30
2023-06-29T09:22:22.847Z,9.20
2023-06-29T09:23:22.814Z,6.70
2023-06-29T09:24:22.812Z,6.80
2023-06-29T09:25:32.764Z,6.90
2023-06-29T09:26:23.821Z,12.10
2023-06-29T09:27:22.793Z,6.90
2023-06-29T09:28:22.758Z,7.40
2023-06-29T09:29:22.744Z,8.60
2023-06-29T09:30:22.731Z,8.00
2023-06-29T09:31:22.766Z,9.10
2023-06-29T09:32:22.716Z,7.10
2023-06-29T09:33:22.712Z,7.00
2023-06-29T09:34:22.685Z,7.40
2023-06-29T09:35:22.668Z,9.10
2023-06-29T09:36:22.648Z,8.20
2023-06-29T09:37:22.656Z,10.20
2023-06-29T09:38:22.659Z,10.70
2023-06-29T09:39:22.615Z,10.50
2023-06-29T09:40:22.607Z,8.00
2023-06-29T09:41:22.591Z,7.30
2023-06-29T09:42:22.638Z,13.10
2023-06-29T09:43:22.562Z,9.50
2023-06-29T09:44:22.596Z,9.00
2023-06-29T09:45:22.535Z,6.70
2023-06-29T09:46:22.642Z,9.90
2023-06-29T09:49:22.980Z,7.70
2023-06-29T09:50:22.696Z,6.60
2023-06-29T09:51:22.673Z,14.10
2023-06-29T09:52:22.594Z,9.60
2023-06-29T09:53:22.456Z,8.30
2023-06-29T09:54:22.451Z,11.50
2023-06-29T09:55:22.413Z,13.20
2023-06-29T09:56:22.400Z,9.10
2023-06-29T09:57:22.379Z,7.70
2023-06-29T09:58:22.366Z,7.60
2023-06-29T09:59:22.374Z,9.80
2023-06-29T10:00:22.341Z,9.50
2023-06-29T10:01:22.409Z,8.80
2023-06-29T10:02:22.428Z,9.80
2023-06-29T10:03:22.342Z,6.50
2023-06-29T10:04:22.342Z,6.10
2023-06-29T10:05:22.279Z,10.30
2023-06-29T10:06:22.292Z,9.10
2023-06-29T10:07:22.431Z,8.30
2023-06-29T10:08:22.241Z,8.70
2023-06-29T10:09:22.274Z,13.00
2023-06-29T10:10:22.237Z,8.70
2023-06-29T10:11:22.216Z,11.30
2023-06-29T10:12:22.189Z,9.60
2023-06-29T10:13:22.196Z,8.60
2023-06-29T10:14:22.216Z,13.60
2023-06-29T10:15:22.155Z,9.10
2023-06-29T10:16:22.178Z,11.10
2023-06-29T10:17:22.143Z,11.40
2023-06-29T10:18:22.135Z,9.60
2023-06-29T10:19:22.102Z,10.60
2023-06-29T10:20:22.114Z,10.60
2023-06-29T10:21:22.108Z,10.30
2023-06-29T10:22:22.068Z,9.60
2023-06-29T10:23:22.803Z,14.70
2023-06-29T10:24:22.039Z,10.90
2023-06-29T10:25:22.064Z,10.00
2023-06-29T10:26:22.019Z,9.10
2023-06-29T10:27:22.028Z,10.90
2023-06-29T10:28:22.001Z,13.60
2023-06-29T10:29:23.241Z,13.70
2023-06-29T10:30:21.961Z,15.80
2023-06-29T10:31:22.007Z,14.70
2023-06-29T10:32:21.957Z,11.20
2023-06-29T10:33:21.923Z,12.50
2023-06-29T10:34:21.928Z,10.50
2023-06-29T10:35:23.107Z,12.50
2023-06-29T10:36:21.966Z,11.00
2023-06-29T10:37:21.918Z,12.40
2023-06-29T10:38:21.862Z,11.80
2023-06-29T10:39:21.849Z,12.40
2023-06-29T10:40:21.834Z,10.90
2023-06-29T10:41:21.826Z,11.80
2023-06-29T10:42:21.837Z,14.00
2023-06-29T10:43:21.813Z,13.00
2023-06-29T10:44:21.784Z,13.70
2023-06-29T10:45:21.778Z,13.30
2023-06-29T10:46:21.881Z,13.00
2023-06-29T10:47:21.758Z,11.90
2023-06-29T10:48:38.433Z,13.00
2023-06-29T10:49:22.749Z,18.30
2023-06-29T10:50:21.707Z,12.60
2023-06-29T10:51:21.700Z,17.70
2023-06-29T10:52:21.707Z,13.30
2023-06-29T10:53:21.690Z,12.70
2023-06-29T10:54:21.683Z,12.30
2023-06-29T10:55:21.697Z,10.50
2023-06-29T10:56:21.638Z,12.60
2023-06-29T10:57:21.654Z,14.20
2023-06-29T10:58:21.601Z,11.90
2023-06-29T10:59:21.588Z,12.40
2023-06-29T11:00:21.772Z,11.30
2023-06-29T11:01:21.634Z,13.70
2023-06-29T11:02:21.622Z,13.40
2023-06-29T11:03:21.569Z,11.00
2023-06-29T11:04:21.630Z,13.90
2023-06-29T11:05:21.535Z,16.20
2023-06-29T11:06:33.233Z,14.30
2023-06-29T11:07:22.654Z,15.80
2023-06-29T11:08:21.485Z,13.30
2023-06-29T11:09:21.497Z,12.60
2023-06-29T11:10:21.458Z,13.30
2023-06-29T11:11:21.454Z,13.20
2023-06-29T11:12:21.466Z,15.10
2023-06-29T11:13:21.425Z,17.70
2023-06-29T11:14:21.429Z,13.00
2023-06-29T11:15:21.592Z,12.90
2023-06-29T11:16:21.454Z,13.60
2023-06-29T11:17:21.406Z,11.60
2023-06-29T11:18:21.376Z,16.00
2023-06-29T11:19:21.351Z,14.40
2023-06-29T11:20:21.337Z,16.00
2023-06-29T11:21:21.318Z,12.70
2023-06-29T11:22:21.308Z,14.80
2023-06-29T11:23:21.288Z,14.30
2023-06-29T11:24:21.485Z,14.20
2023-06-29T11:25:21.267Z,13.40
2023-06-29T11:26:21.272Z,15.00
2023-06-29T11:27:21.247Z,17.10
2023-06-29T11:28:21.251Z,15.80
2023-06-29T11:29:21.213Z,18.00
2023-06-29T11:30:21.212Z,17.70
2023-06-29T11:31:21.325Z,14.10
2023-06-29T11:32:21.195Z,15.40
2023-06-29T11:33:33.452Z,17.00
2023-06-29T11:34:22.145Z,14.80
2023-06-29T11:35:21.134Z,12.40
2023-06-29T11:36:21.156Z,14.50
2023-06-29T11:37:23.841Z,13.10
2023-06-29T11:38:21.158Z,13.60
2023-06-29T11:39:21.096Z,11.90
2023-06-29T11:40:21.086Z,15.40
2023-06-29T11:41:21.158Z,14.70
2023-06-29T11:42:21.088Z,13.70
2023-06-29T11:43:23.212Z,15.00
2023-06-29T11:44:21.034Z,15.70
2023-06-29T11:45:21.009Z,14.70
2023-06-29T11:46:21.114Z,13.50
2023-06-29T11:48:22.067Z,15.30
2023-06-29T11:49:22.849Z,13.50
2023-06-29T11:50:21.014Z,12.70
2023-06-29T11:51:21.002Z,14.30
2023-06-29T11:52:20.985Z,14.00
2023-06-29T11:53:20.955Z,14.50
2023-06-29T11:54:21.007Z,17.20
2023-06-29T11:55:23.763Z,14.00
2023-06-29T11:56:20.870Z,12.90
2023-06-29T11:57:20.862Z,17.80
2023-06-29T11:58:20.827Z,12.70
2023-06-29T11:59:20.858Z,13.50
2023-06-29T12:00:20.868Z,16.50
2023-06-29T12:01:22.625Z,17.50
2023-06-29T12:02:20.838Z,14.90
2023-06-29T12:03:20.914Z,14.50
2023-06-29T12:04:20.801Z,11.90
2023-06-29T12:05:20.755Z,13.40
2023-06-29T12:06:20.741Z,19.80
2023-06-29T12:07:20.872Z,15.20
2023-06-29T12:08:20.794Z,22.90
2023-06-29T12:09:20.723Z,13.30
2023-06-29T12:10:20.681Z,16.50
2023-06-29T12:11:22.856Z,12.90
2023-06-29T12:12:20.681Z,13.50
2023-06-29T12:13:20.668Z,14.90
2023-06-29T12:14:20.653Z,16.60
2023-06-29T12:15:20.653Z,13.70
2023-06-29T12:18:20.762Z,16.90
2023-06-29T12:19:20.715Z,16.60
2023-06-29T12:20:20.731Z,17.20
2023-06-29T12:21:20.747Z,18.50
2023-06-29T12:22:20.541Z,18.90
2023-06-29T12:23:20.508Z,15.80
2023-06-29T12:24:20.529Z,18.00
2023-06-29T12:25:20.476Z,17.70
2023-06-29T12:26:20.466Z,18.90
2023-06-29T12:27:20.480Z,23.60
2023-06-29T12:28:20.448Z,15.70
2023-06-29T12:29:20.450Z,21.60
2023-06-29T12:30:20.434Z,19.50
2023-06-29T12:31:20.489Z,20.50
2023-06-29T12:32:20.420Z,20.00
2023-06-29T12:33:20.391Z,21.10
2023-06-29T12:34:20.395Z,23.60
2023-06-29T12:35:20.366Z,19.80
2023-06-29T12:36:20.347Z,20.20
2023-06-29T12:37:20.334Z,19.20
2023-06-29T12:38:20.318Z,20.00
2023-06-29T12:39:20.323Z,22.10
2023-06-29T12:40:20.297Z,23.10
2023-06-29T12:41:20.292Z,25.10
2023-06-29T12:42:20.294Z,22.60
2023-06-29T12:43:20.267Z,19.70
2023-06-29T12:44:20.261Z,22.00
2023-06-29T12:45:20.248Z,20.90
2023-06-29T12:46:20.221Z,21.40
2023-06-29T12:47:20.258Z,21.70
2023-06-29T12:48:20.292Z,26.70
2023-06-29T12:49:20.176Z,22.50
2023-06-29T12:50:20.182Z,25.90
2023-06-29T12:51:20.171Z,25.00
2023-06-29T12:52:20.167Z,22.70
2023-06-29T12:53:20.138Z,22.40
2023-06-29T12:54:20.121Z,21.40
2023-06-29T12:55:20.118Z,24.40
2023-06-29T12:56:20.088Z,21.90
2023-06-29T12:57:20.102Z,22.30
2023-06-29T12:58:20.067Z,20.00
2023-06-29T12:59:20.079Z,24.30
2023-06-29T13:00:20.045Z,21.00
2023-06-29T13:01:20.065Z,22.10
2023-06-29T13:02:20.090Z,25.70
2023-06-29T13:03:20.214Z,25.10
2023-06-29T13:04:20.128Z,25.30
2023-06-29T13:05:19.978Z,27.70
2023-06-29T13:06:19.988Z,20.70
2023-06-29T13:07:20.018Z,23.10
2023-06-29T13:08:19.940Z,22.20
2023-06-29T13:09:19.953Z,20.40
2023-06-29T13:10:19.925Z,21.30
2023-06-29T13:11:19.915Z,22.60
2023-06-29T13:12:19.908Z,18.50
2023-06-29T13:13:19.905Z,21.40
2023-06-29T13:14:19.884Z,20.20
2023-06-29T13:15:19.861Z,19.60
2023-06-29T13:16:19.879Z,24.40